createdAt,value
2018-08-28T00:01:51.253Z,15.17
2018-08-28T00:04:25.602Z,15.19
2018-08-28T00:07:00.641Z,15.21
2018-08-28T00:09:34.620Z,15.21
2018-08-28T00:12:09.003Z,15.20
2018-08-28T00:14:43.472Z,15.23
2018-08-28T00:17:17.767Z,15.24
2018-08-28T00:19:52.259Z,15.24
2018-08-28T00:22:26.633Z,15.27
2018-08-28T00:25:01.088Z,15.29
2018-08-28T00:27:34.928Z,15.32
2018-08-28T00:30:09.203Z,15.31
2018-08-28T00:32:43.156Z,15.30
2018-08-28T00:35:17.635Z,15.29
2018-08-28T00:37:51.960Z,15.28
2018-08-28T00:40:26.035Z,15.27
2018-08-28T00:43:00.232Z,15.25
2018-08-28T00:45:34.194Z,15.27
2018-08-28T00:48:08.476Z,15.24
2018-08-28T00:50:42.006Z,15.22
2018-08-28T00:53:17.606Z,15.20
2018-08-28T00:55:52.905Z,15.20
2018-08-28T00:58:27.627Z,15.19
2018-08-28T01:01:01.938Z,15.19
2018-08-28T01:03:35.750Z,15.17
2018-08-28T01:06:10.013Z,15.14
2018-08-28T01:08:43.536Z,15.09
2018-08-28T01:11:17.193Z,15.03
2018-08-28T01:13:51.281Z,14.99
2018-08-28T01:16:25.404Z,14.96
2018-08-28T01:19:00.121Z,14.89
2018-08-28T01:21:34.648Z,14.85
2018-08-28T01:24:08.455Z,14.65
2018-08-28T01:26:42.266Z,14.81
2018-08-28T01:29:10.938Z,14.78
2018-08-28T01:31:39.432Z,14.71
2018-08-28T01:34:07.982Z,14.67
2018-08-28T01:36:36.450Z,14.69
2018-08-28T01:39:05.839Z,14.67
2018-08-28T01:41:34.328Z,14.59
2018-08-28T01:44:03.228Z,14.57
2018-08-28T01:46:31.705Z,14.53
2018-08-28T01:49:00.165Z,14.51
2018-08-28T01:51:28.726Z,14.49
2018-08-28T01:53:57.201Z,14.45
2018-08-28T01:56:25.733Z,14.42
2018-08-28T01:58:54.249Z,14.38
2018-08-28T02:01:22.755Z,14.33
2018-08-28T02:03:51.251Z,14.33
2018-08-28T02:06:19.744Z,14.29
2018-08-28T02:08:48.228Z,14.17
2018-08-28T02:11:16.751Z,14.05
2018-08-28T02:13:45.224Z,14.00
2018-08-28T02:16:13.688Z,13.94
2018-08-28T02:18:42.556Z,13.93
2018-08-28T02:21:11.064Z,13.97
2018-08-28T02:23:39.533Z,13.88
2018-08-28T02:26:08.065Z,13.80
2018-08-28T02:28:36.608Z,13.77
2018-08-28T02:31:05.136Z,13.66
2018-08-28T02:33:33.760Z,13.59
2018-08-28T02:36:02.195Z,13.53
2018-08-28T02:38:30.891Z,13.47
2018-08-28T02:40:59.391Z,13.32
2018-08-28T02:43:27.875Z,13.34
2018-08-28T02:45:56.408Z,13.27
2018-08-28T02:48:25.010Z,13.20
2018-08-28T02:50:53.569Z,13.14
2018-08-28T02:53:22.045Z,13.03
2018-08-28T02:55:50.607Z,13.01
2018-08-28T02:58:19.219Z,12.97
2018-08-28T03:00:47.704Z,12.93
2018-08-28T03:03:16.302Z,12.94
2018-08-28T03:05:44.872Z,12.91
2018-08-28T03:08:13.358Z,12.88
2018-08-28T03:10:41.855Z,12.84
2018-08-28T03:13:10.383Z,12.77
2018-08-28T03:15:38.931Z,12.72
2018-08-28T03:18:07.574Z,12.68
2018-08-28T03:20:36.164Z,12.71
2018-08-28T03:23:04.720Z,12.71
2018-08-28T03:25:33.234Z,12.70
2018-08-28T03:28:01.789Z,12.65
2018-08-28T03:30:30.289Z,12.61
2018-08-28T03:32:58.856Z,12.57
2018-08-28T03:35:27.347Z,12.49
2018-08-28T03:37:55.832Z,12.44
2018-08-28T03:40:24.414Z,12.36
2018-08-28T03:42:53.008Z,12.04
2018-08-28T03:45:21.492Z,12.34
2018-08-28T03:47:49.974Z,12.27
2018-08-28T03:50:18.481Z,12.27
2018-08-28T03:52:46.971Z,12.26
2018-08-28T03:55:15.491Z,12.24
2018-08-28T03:57:43.965Z,12.17
2018-08-28T04:00:12.425Z,12.12
2018-08-28T04:02:40.951Z,12.22
2018-08-28T04:05:09.173Z,12.31
2018-08-28T04:07:37.631Z,12.23
2018-08-28T04:10:06.688Z,12.28
2018-08-28T04:12:35.205Z,12.22
2018-08-28T04:15:03.800Z,12.18
2018-08-28T04:17:36.428Z,12.12
2018-08-28T04:20:05.084Z,12.07
2018-08-28T04:22:33.619Z,12.09
2018-08-28T04:25:02.160Z,12.04
2018-08-28T04:27:30.677Z,12.05
2018-08-28T04:29:59.216Z,12.04
2018-08-28T04:32:27.701Z,12.03
2018-08-28T04:34:57.223Z,12.02
2018-08-28T04:37:25.724Z,11.97
2018-08-28T04:39:54.217Z,11.95
2018-08-28T04:42:22.942Z,11.92
2018-08-28T04:44:51.464Z,11.92
2018-08-28T04:47:19.921Z,11.95
2018-08-28T04:49:48.434Z,12.01
2018-08-28T04:52:16.936Z,12.13
2018-08-28T04:54:45.517Z,12.17
2018-08-28T04:57:14.085Z,12.19
2018-08-28T04:59:42.704Z,12.26
2018-08-28T05:02:11.723Z,12.40
2018-08-28T05:04:41.253Z,12.48
2018-08-28T05:07:09.776Z,12.52
2018-08-28T05:09:38.305Z,12.60
2018-08-28T05:12:06.882Z,12.67
2018-08-28T05:14:36.512Z,12.70
2018-08-28T05:17:05.205Z,12.77
2018-08-28T05:19:33.673Z,12.80
2018-08-28T05:22:02.184Z,12.83
2018-08-28T05:24:30.672Z,12.87
2018-08-28T05:26:59.589Z,12.90
2018-08-28T05:29:28.070Z,12.94
2018-08-28T05:31:56.593Z,12.98
2018-08-28T05:34:25.104Z,12.98
2018-08-28T05:36:53.678Z,13.04
2018-08-28T05:39:23.128Z,13.08
2018-08-28T05:41:51.703Z,13.15
2018-08-28T05:44:20.168Z,13.20
2018-08-28T05:46:48.673Z,13.24
2018-08-28T05:49:17.145Z,13.28
2018-08-28T05:51:46.669Z,13.31
2018-08-28T05:54:15.216Z,13.35
2018-08-28T05:56:43.673Z,13.42
2018-08-28T05:59:12.256Z,13.49
2018-08-28T06:01:40.778Z,13.56
2018-08-28T06:04:09.772Z,13.61
2018-08-28T06:06:38.288Z,13.71
2018-08-28T06:09:07.221Z,13.77
2018-08-28T06:11:36.545Z,13.80
2018-08-28T06:14:10.681Z,13.85
2018-08-28T06:16:40.673Z,13.89
2018-08-28T06:19:09.591Z,13.88
2018-08-28T06:21:38.321Z,13.90
2018-08-28T06:24:07.325Z,13.92
2018-08-28T06:26:36.268Z,13.97
2018-08-28T06:29:05.457Z,14.02
2018-08-28T06:31:34.590Z,14.10
2018-08-28T06:34:03.437Z,14.15
2018-08-28T06:36:32.047Z,14.22
2018-08-28T06:39:00.751Z,14.30
2018-08-28T06:41:29.528Z,14.36
2018-08-28T06:43:58.173Z,14.44
2018-08-28T06:46:26.862Z,14.56
2018-08-28T06:48:56.069Z,14.66
2018-08-28T06:51:24.633Z,14.75
2018-08-28T06:53:53.317Z,14.85
2018-08-28T06:56:21.964Z,14.95
2018-08-28T06:58:50.568Z,15.01
2018-08-28T07:01:19.254Z,15.10
2018-08-28T07:03:47.885Z,15.24
2018-08-28T07:06:16.465Z,15.31
2018-08-28T07:08:45.097Z,15.37
2018-08-28T07:11:13.658Z,15.49
2018-08-28T07:13:42.273Z,15.57
2018-08-28T07:16:10.888Z,15.64
2018-08-28T07:18:39.493Z,15.74
2018-08-28T07:21:08.120Z,15.81
2018-08-28T07:23:36.726Z,15.85
2018-08-28T07:26:05.423Z,15.93
2018-08-28T07:28:33.988Z,16.04
2018-08-28T07:31:02.571Z,16.09
2018-08-28T07:33:31.154Z,16.17
2018-08-28T07:35:59.795Z,16.22
2018-08-28T07:38:28.470Z,16.20
2018-08-28T07:40:57.161Z,16.37
2018-08-28T07:43:25.829Z,16.48
2018-08-28T07:45:54.416Z,16.56
2018-08-28T07:48:23.056Z,16.66
2018-08-28T07:50:51.644Z,16.82
2018-08-28T07:53:20.212Z,16.88
2018-08-28T07:55:48.696Z,16.95
2018-08-28T07:58:17.305Z,16.98
2018-08-28T08:00:45.984Z,17.06
2018-08-28T08:03:14.617Z,17.11
2018-08-28T08:05:43.253Z,17.16
2018-08-28T08:08:11.838Z,17.28
2018-08-28T08:10:40.427Z,17.36
2018-08-28T08:13:09.021Z,17.51
2018-08-28T08:15:37.576Z,17.54
2018-08-28T08:18:06.559Z,17.74
2018-08-28T08:20:35.065Z,17.89
2018-08-28T08:23:03.562Z,17.84
2018-08-28T08:25:32.088Z,17.75
2018-08-28T08:28:00.653Z,17.65
2018-08-28T08:30:29.216Z,17.76
2018-08-28T08:32:57.771Z,17.87
2018-08-28T08:35:26.338Z,18.00
2018-08-28T08:37:54.809Z,18.02
2018-08-28T08:40:23.356Z,18.25
2018-08-28T08:42:51.959Z,18.30
2018-08-28T08:45:20.518Z,18.31
2018-08-28T08:47:49.317Z,18.41
2018-08-28T08:50:17.808Z,18.50
2018-08-28T08:52:46.359Z,18.43
2018-08-28T08:55:14.866Z,18.44
2018-08-28T08:57:43.356Z,18.56
2018-08-28T09:00:11.891Z,18.71
2018-08-28T09:02:40.384Z,18.81
2018-08-28T09:05:09.333Z,18.73
2018-08-28T09:07:37.860Z,18.76
2018-08-28T09:10:06.426Z,18.94
2018-08-28T09:12:34.969Z,18.94
2018-08-28T09:15:03.516Z,19.05
2018-08-28T09:17:32.009Z,18.79
2018-08-28T09:20:00.502Z,18.81
2018-08-28T09:22:29.469Z,18.87
2018-08-28T09:24:58.081Z,19.07
2018-08-28T09:27:26.640Z,19.31
2018-08-28T09:29:55.484Z,19.49
2018-08-28T09:32:23.968Z,19.40
2018-08-28T09:34:52.544Z,19.20
2018-08-28T09:37:21.039Z,19.17
2018-08-28T09:39:49.918Z,19.15
2018-08-28T09:42:18.600Z,19.19
2018-08-28T09:44:47.096Z,19.41
2018-08-28T09:47:15.657Z,19.48
2018-08-28T09:49:44.132Z,19.33
2018-08-28T09:52:12.664Z,19.29
2018-08-28T09:54:41.152Z,19.40
2018-08-28T09:57:09.658Z,19.41
2018-08-28T09:59:38.193Z,19.33
2018-08-28T10:02:06.879Z,19.14
2018-08-28T10:04:35.404Z,19.01
2018-08-28T10:07:03.943Z,19.08
2018-08-28T10:09:32.429Z,18.93
2018-08-28T10:12:00.998Z,18.97
2018-08-28T10:14:29.558Z,18.95
2018-08-28T10:16:58.048Z,18.95
2018-08-28T10:19:26.575Z,18.92
2018-08-28T10:21:55.137Z,19.11
2018-08-28T10:24:23.636Z,19.10
2018-08-28T10:26:52.192Z,19.17
2018-08-28T10:29:20.694Z,19.22
2018-08-28T10:31:49.244Z,19.29
2018-08-28T10:34:17.801Z,19.44
2018-08-28T10:36:46.286Z,19.42
2018-08-28T10:39:14.767Z,19.56
2018-08-28T10:41:43.277Z,19.54
2018-08-28T10:44:11.792Z,19.67
2018-08-28T10:46:40.732Z,20.03
2018-08-28T10:49:09.188Z,20.05
2018-08-28T10:51:37.865Z,19.94
2018-08-28T10:54:06.569Z,19.70
2018-08-28T10:56:35.153Z,19.63
2018-08-28T10:59:03.756Z,19.58
2018-08-28T11:01:32.251Z,19.49
2018-08-28T11:04:00.717Z,19.53
2018-08-28T11:06:29.272Z,19.48
2018-08-28T11:08:57.879Z,19.46
2018-08-28T11:11:26.406Z,19.49
2018-08-28T11:13:54.892Z,19.55
2018-08-28T11:16:23.400Z,19.68
2018-08-28T11:18:51.997Z,19.77
2018-08-28T11:21:20.543Z,19.82
2018-08-28T11:23:49.146Z,19.99
2018-08-28T11:26:17.630Z,20.21
2018-08-28T11:28:46.179Z,20.27
2018-08-28T11:31:14.850Z,20.10
2018-08-28T11:33:43.292Z,20.10
2018-08-28T11:36:11.956Z,20.12
2018-08-28T11:38:40.474Z,20.29
2018-08-28T11:41:08.993Z,20.47
2018-08-28T11:43:37.692Z,20.84
2018-08-28T11:46:06.604Z,20.97
2018-08-28T11:48:35.514Z,21.17
2018-08-28T11:51:04.005Z,21.43
2018-08-28T11:53:32.472Z,21.41
2018-08-28T11:56:01.061Z,21.55
2018-08-28T11:58:29.604Z,21.78
2018-08-28T12:00:58.548Z,21.76
2018-08-28T12:03:27.077Z,22.06
2018-08-28T12:05:55.692Z,22.18
2018-08-28T12:08:24.221Z,22.43
2018-08-28T12:10:52.830Z,22.17
2018-08-28T12:13:21.427Z,22.36
2018-08-28T12:15:49.992Z,22.38
2018-08-28T12:18:18.528Z,22.08
2018-08-28T12:20:47.115Z,22.00
2018-08-28T12:23:15.623Z,21.75
2018-08-28T12:25:44.175Z,21.74
2018-08-28T12:28:12.695Z,21.60
2018-08-28T12:30:41.169Z,21.56
2018-08-28T12:33:09.998Z,21.52
2018-08-28T12:35:38.521Z,21.18
2018-08-28T12:38:07.083Z,21.18
2018-08-28T12:40:35.658Z,20.95
2018-08-28T12:43:04.241Z,20.80
2018-08-28T12:45:32.777Z,20.66
2018-08-28T12:48:01.735Z,20.58
2018-08-28T12:50:30.300Z,20.48
2018-08-28T12:52:58.840Z,20.36
2018-08-28T12:55:27.444Z,20.23
2018-08-28T12:57:56.040Z,20.19
2018-08-28T13:00:24.644Z,20.11
2018-08-28T13:02:53.192Z,20.19
2018-08-28T13:05:21.858Z,20.20
2018-08-28T13:07:50.485Z,20.23
2018-08-28T13:10:19.237Z,20.27
2018-08-28T13:12:47.974Z,20.33
2018-08-28T13:15:16.593Z,20.41
2018-08-28T13:17:45.216Z,20.46
2018-08-28T13:20:13.773Z,20.49
2018-08-28T13:22:42.272Z,20.45
2018-08-28T13:25:11.465Z,20.39
2018-08-28T13:27:39.965Z,20.46
2018-08-28T13:30:08.472Z,20.58
2018-08-28T13:32:36.951Z,20.83
2018-08-28T13:35:05.469Z,20.95
2018-08-28T13:37:33.961Z,20.97
2018-08-28T13:40:02.601Z,20.97
2018-08-28T13:42:31.140Z,20.89
2018-08-28T13:44:59.654Z,21.15
2018-08-28T13:47:28.132Z,21.20
2018-08-28T13:49:57.025Z,21.29
2018-08-28T13:52:25.485Z,21.35
2018-08-28T13:54:53.971Z,21.39
2018-08-28T13:57:22.460Z,21.40
2018-08-28T13:59:51.199Z,21.34
2018-08-28T14:02:19.673Z,21.47
2018-08-28T14:04:49.086Z,21.25
2018-08-28T14:07:17.688Z,21.29
2018-08-28T14:09:46.253Z,21.40
2018-08-28T14:12:14.786Z,21.32
2018-08-28T14:14:43.330Z,21.49
2018-08-28T14:17:11.832Z,21.58
2018-08-28T14:19:40.368Z,21.81
2018-08-28T14:22:08.953Z,22.12
2018-08-28T14:24:37.464Z,22.29
2018-08-28T14:27:06.705Z,22.31
2018-08-28T14:29:35.321Z,22.20
2018-08-28T14:32:03.856Z,22.40
2018-08-28T14:34:32.464Z,22.36
2018-08-28T14:37:00.968Z,22.56
2018-08-28T14:39:29.451Z,22.74
2018-08-28T14:41:58.078Z,22.60
2018-08-28T14:44:26.565Z,22.72
2018-08-28T14:46:55.045Z,22.55
2018-08-28T14:49:23.625Z,22.34
2018-08-28T14:51:52.149Z,22.17
2018-08-28T14:54:20.666Z,21.96
2018-08-28T14:56:49.227Z,21.91
2018-08-28T14:59:18.060Z,21.79
2018-08-28T15:01:46.533Z,21.70
2018-08-28T15:04:15.092Z,21.54
2018-08-28T15:06:43.641Z,21.54
2018-08-28T15:09:12.128Z,21.54
2018-08-28T15:11:40.612Z,21.72
2018-08-28T15:14:09.159Z,21.64
2018-08-28T15:16:37.726Z,21.61
2018-08-28T15:19:06.543Z,21.51
2018-08-28T15:21:35.051Z,21.52
2018-08-28T15:24:03.537Z,21.47
2018-08-28T15:26:32.040Z,21.36
2018-08-28T15:29:00.605Z,21.29
2018-08-28T15:31:29.107Z,21.29
2018-08-28T15:33:57.694Z,21.48
2018-08-28T15:36:26.368Z,21.41
2018-08-28T15:38:55.193Z,21.27
2018-08-28T15:41:23.716Z,21.23
2018-08-28T15:43:52.240Z,21.31
2018-08-28T15:46:20.796Z,21.30
2018-08-28T15:48:49.379Z,21.26
2018-08-28T15:51:17.947Z,21.22
2018-08-28T15:53:47.468Z,21.06
2018-08-28T15:56:15.988Z,20.94
2018-08-28T15:58:44.544Z,20.88
2018-08-28T16:01:13.104Z,20.81
2018-08-28T16:03:41.623Z,20.81
2018-08-28T16:06:10.141Z,20.79
2018-08-28T16:08:38.654Z,20.89
2018-08-28T16:11:07.224Z,20.84
2018-08-28T16:13:35.705Z,20.84
2018-08-28T16:16:04.246Z,20.72
2018-08-28T16:18:32.783Z,20.71
2018-08-28T16:21:01.518Z,20.65
2018-08-28T16:23:32.665Z,20.50
2018-08-28T16:26:01.397Z,20.50
2018-08-28T16:28:30.080Z,20.42
2018-08-28T16:30:58.660Z,20.38
2018-08-28T16:33:27.263Z,20.41
2018-08-28T16:35:56.108Z,20.38
2018-08-28T16:38:24.461Z,20.44
2018-08-28T16:40:53.041Z,20.39
2018-08-28T16:43:21.576Z,20.32
2018-08-28T16:45:50.162Z,20.33
2018-08-28T16:48:18.748Z,20.28
2018-08-28T16:50:47.240Z,20.25
2018-08-28T16:53:15.757Z,20.26
2018-08-28T16:55:44.342Z,20.28
2018-08-28T16:58:12.843Z,20.36
2018-08-28T17:13:31.179Z,20.02
2018-08-28T17:19:11.362Z,19.92
2018-08-28T17:22:08.713Z,19.78
2018-08-28T17:24:58.336Z,19.73
2018-08-28T17:28:13.516Z,19.74
2018-08-28T17:31:20.392Z,19.71
2018-08-28T17:37:02.954Z,19.54
2018-08-28T17:39:57.264Z,19.45
2018-08-28T17:48:53.379Z,19.26
2018-08-28T17:52:24.122Z,19.20
2018-08-28T17:55:11.809Z,19.11
2018-08-28T18:00:53.674Z,19.00
2018-08-28T18:09:40.125Z,18.98
2018-08-28T18:12:40.293Z,18.89
2018-08-28T18:15:11.256Z,18.80
2018-08-28T18:27:14.807Z,18.25
2018-08-28T18:29:50.646Z,18.58
2018-08-28T18:32:25.389Z,17.59
2018-08-28T18:35:00.203Z,18.55
2018-08-28T18:37:34.945Z,18.50
2018-08-28T18:40:03.852Z,18.53
2018-08-28T18:42:32.341Z,18.59
2018-08-28T18:45:00.907Z,18.30
2018-08-28T18:47:29.381Z,18.61
2018-08-28T18:49:57.966Z,18.53
2018-08-28T18:52:26.569Z,18.49
2018-08-28T18:54:55.064Z,18.43
2018-08-28T18:57:23.684Z,18.34
2018-08-28T18:59:52.252Z,18.33
2018-08-28T19:02:20.881Z,18.32
2018-08-28T19:04:49.404Z,18.31
2018-08-28T19:07:17.894Z,18.32
2018-08-28T19:09:46.369Z,18.27
2018-08-28T19:12:14.990Z,18.27
2018-08-28T19:14:43.579Z,18.29
2018-08-28T19:17:12.068Z,18.28
2018-08-28T19:19:40.979Z,18.22
2018-08-28T19:22:09.781Z,18.20
2018-08-28T19:24:38.292Z,18.25
2018-08-28T19:27:06.925Z,18.25
2018-08-28T19:29:35.438Z,18.02
2018-08-28T19:32:04.048Z,18.10
2018-08-28T19:34:32.904Z,17.99
2018-08-28T19:37:01.502Z,17.93
2018-08-28T19:39:30.249Z,17.91
2018-08-28T19:41:58.826Z,17.85
2018-08-28T19:44:27.292Z,17.84
2018-08-28T19:46:55.876Z,17.75
2018-08-28T19:49:24.356Z,17.76
2018-08-28T19:51:52.892Z,17.81
2018-08-28T19:54:21.411Z,17.78
2018-08-28T19:56:49.970Z,17.81
2018-08-28T19:59:18.517Z,17.74
2018-08-28T20:01:47.021Z,17.59
2018-08-28T20:04:15.553Z,17.50
2018-08-28T20:06:44.036Z,17.43
2018-08-28T20:09:12.532Z,17.51
2018-08-28T20:11:41.062Z,17.51
2018-08-28T20:14:09.695Z,17.30
2018-08-28T20:16:38.309Z,17.13
2018-08-28T20:19:06.864Z,17.00
2018-08-28T20:21:35.358Z,16.92
2018-08-28T20:24:04.581Z,16.80
2018-08-28T20:26:33.126Z,16.73
2018-08-28T20:29:01.641Z,16.66
2018-08-28T20:31:30.243Z,16.47
2018-08-28T20:33:58.757Z,16.36
2018-08-28T20:36:27.304Z,16.33
2018-08-28T20:38:55.857Z,16.30
2018-08-28T20:41:24.400Z,16.12
2018-08-28T20:43:52.919Z,15.98
2018-08-28T20:46:21.400Z,15.87
2018-08-28T20:48:49.935Z,15.93
2018-08-28T20:51:18.442Z,16.02
2018-08-28T20:53:47.014Z,15.94
2018-08-28T20:56:15.516Z,15.93
2018-08-28T20:58:44.028Z,15.83
2018-08-28T21:01:12.593Z,15.59
2018-08-28T21:03:41.128Z,15.52
2018-08-28T21:06:09.638Z,15.61
2018-08-28T21:08:38.191Z,15.59
2018-08-28T21:11:06.876Z,15.54
2018-08-28T21:13:35.400Z,15.43
2018-08-28T21:16:03.999Z,15.18
2018-08-28T21:18:32.762Z,15.08
2018-08-28T21:21:01.267Z,15.18
2018-08-28T21:23:29.837Z,15.23
2018-08-28T21:25:58.510Z,15.05
2018-08-28T21:28:27.037Z,15.09
2018-08-28T21:30:56.946Z,15.10
2018-08-28T21:33:25.718Z,14.96
2018-08-28T21:35:54.843Z,14.91
2018-08-28T21:38:23.780Z,14.76
2018-08-28T21:40:52.593Z,14.75
2018-08-28T21:43:21.353Z,14.71
2018-08-28T21:45:50.645Z,14.62
2018-08-28T21:48:19.768Z,14.45
2018-08-28T21:50:48.331Z,14.38
2018-08-28T21:53:17.087Z,14.34
2018-08-28T21:55:45.667Z,14.37
2018-08-28T21:58:14.240Z,14.34
2018-08-28T22:00:42.897Z,14.26
2018-08-28T22:03:11.438Z,14.22
2018-08-28T22:05:40.071Z,14.20
2018-08-28T22:08:08.656Z,14.02
2018-08-28T22:10:37.240Z,13.92
2018-08-28T22:13:05.837Z,13.84
2018-08-28T22:15:34.370Z,13.82
2018-08-28T22:18:02.904Z,13.79
2018-08-28T22:20:31.452Z,13.81
2018-08-28T22:23:00.100Z,13.83
2018-08-28T22:25:28.609Z,13.85
2018-08-28T22:27:57.216Z,13.86
2018-08-28T22:30:25.749Z,13.81
2018-08-28T22:32:54.292Z,13.76
2018-08-28T22:35:22.831Z,13.72
2018-08-28T22:37:51.463Z,13.70
2018-08-28T22:40:20.037Z,13.62
2018-08-28T22:42:48.532Z,13.53
2018-08-28T22:45:17.060Z,13.44
2018-08-28T22:47:45.632Z,13.40
2018-08-28T22:50:14.123Z,13.49
2018-08-28T22:52:42.637Z,13.44
2018-08-28T22:55:11.140Z,13.39
2018-08-28T22:57:39.632Z,13.33
2018-08-28T23:00:08.216Z,13.32
2018-08-28T23:02:36.853Z,13.20
2018-08-28T23:05:05.855Z,13.01
2018-08-28T23:07:34.349Z,12.96
2018-08-28T23:10:02.897Z,12.98
2018-08-28T23:12:31.530Z,12.88
2018-08-28T23:15:00.060Z,12.88
2018-08-28T23:17:28.702Z,12.98
2018-08-28T23:19:57.272Z,13.05
2018-08-28T23:22:26.814Z,13.04
2018-08-28T23:24:55.338Z,12.87
2018-08-28T23:27:23.877Z,12.74
2018-08-28T23:29:53.538Z,12.65
2018-08-28T23:32:22.132Z,12.59
2018-08-28T23:34:50.667Z,12.67
2018-08-28T23:37:19.222Z,12.68
2018-08-28T23:39:47.743Z,12.69
2018-08-28T23:42:16.280Z,12.63
2018-08-28T23:44:44.892Z,12.65
2018-08-28T23:47:13.412Z,12.61
2018-08-28T23:49:41.933Z,12.54
2018-08-28T23:52:10.763Z,12.55
2018-08-28T23:54:39.280Z,12.47
2018-08-28T23:57:07.804Z,12.44
2018-08-28T23:59:36.532Z,12.39
